Time;durP1;ratioP1;P1;durP2;ratioP2;P2;SDS_P1;SDS_P2;PMS_P1;PMS_P2;Temp;Humidity;BMP_temperature;BMP_pressure;BME280_temperature;BME280_humidity;BME280_pressure;Samples;Min_cycle;Max_cycle;Signal;HPM_P1;HPM_P2
2022/08/14 00:02:22;;;;;;;12.97;10.70;;;24.30;85.30;;;;;;5034389;28;20434;-76
2022/08/14 00:04:54;;;;;;;10.77;9.77;;;24.20;85.30;;;;;;5032542;28;20427;-75
2022/08/14 00:07:24;;;;;;;10.30;9.40;;;24.20;85.50;;;;;;5034496;28;20474;-76
2022/08/14 00:09:53;;;;;;;10.73;9.70;;;24.20;85.60;;;;;;5032338;28;20530;-75
2022/08/14 00:12:45;;;;;;;11.23;10.17;;;24.20;85.80;;;;;;5034054;28;20431;-75
2022/08/14 00:15:24;;;;;;;10.00;9.20;;;24.10;85.80;;;;;;5033877;28;20450;-75
2022/08/14 00:17:57;;;;;;;10.73;9.80;;;24.10;85.90;;;;;;5032460;28;20434;-75
2022/08/14 00:20:28;;;;;;;10.80;10.00;;;24.10;86.00;;;;;;5033908;28;20469;-75
2022/08/14 00:23:06;;;;;;;10.97;9.87;;;24.00;86.00;;;;;;5033622;28;20892;-76
2022/08/14 00:25:42;;;;;;;10.83;9.93;;;24.00;86.10;;;;;;5033989;28;20541;-74
2022/08/14 00:28:25;;;;;;;11.33;10.30;;;24.00;86.20;;;;;;5033723;28;20458;-75
2022/08/14 00:30:59;;;;;;;10.83;9.73;;;23.90;86.30;;;;;;5032457;28;20470;-76
2022/08/14 00:33:29;;;;;;;10.97;9.97;;;23.90;86.40;;;;;;5034031;28;20439;-76
2022/08/14 00:36:17;;;;;;;10.70;9.80;;;23.90;86.50;;;;;;5033488;28;20481;-75
2022/08/14 00:39:07;;;;;;;11.33;10.53;;;23.90;86.70;;;;;;5032177;28;20581;-76
2022/08/14 00:41:37;;;;;;;11.97;11.00;;;23.80;86.70;;;;;;5033854;28;20514;-76
2022/08/14 00:44:06;;;;;;;11.30;10.40;;;23.80;86.90;;;;;;5033907;28;20526;-75
2022/08/14 00:46:36;;;;;;;12.23;10.70;;;23.80;87.10;;;;;;5033353;28;20469;-76
2022/08/14 00:49:06;;;;;;;10.90;9.80;;;23.80;87.20;;;;;;5033182;28;20462;-74
2022/08/14 00:51:38;;;;;;;10.30;9.50;;;23.70;87.20;;;;;;5033672;28;20426;-75
2022/08/14 00:54:09;;;;;;;11.57;10.47;;;23.70;87.30;;;;;;5033375;28;20442;-75
2022/08/14 00:56:51;;;;;;;11.33;10.23;;;23.70;87.50;;;;;;5033756;28;20793;-75
2022/08/14 00:59:24;;;;;;;11.87;10.20;;;23.70;87.70;;;;;;5033614;28;20804;-75
2022/08/14 01:01:55;;;;;;;11.03;10.13;;;23.70;87.70;;;;;;5033179;28;20438;-75
2022/08/14 01:04:27;;;;;;;11.20;10.10;;;23.60;87.90;;;;;;5033412;28;20893;-75
2022/08/14 01:07:19;;;;;;;10.73;9.73;;;23.60;88.10;;;;;;5033713;28;20431;-75
2022/08/14 01:09:50;;;;;;;11.03;10.13;;;23.60;88.20;;;;;;5033382;28;20816;-75
2022/08/14 01:12:19;;;;;;;10.50;9.60;;;23.60;88.40;;;;;;5033377;28;20793;-75
2022/08/14 01:14:58;;;;;;;12.53;10.50;;;23.60;88.50;;;;;;5033285;28;20419;-75
2022/08/14 01:21:02;;;;;;;11.40;10.50;;;23.60;88.70;;;;;;5033356;28;20937;-76
2022/08/14 01:23:10;;;;;;;11.33;10.43;;;23.50;88.90;;;;;;5035355;28;20451;-75
2022/08/14 01:25:48;;;;;;;10.53;9.53;;;23.50;89.00;;;;;;5037093;28;20836;-76
2022/08/14 01:28:19;;;;;;;11.33;10.43;;;23.50;89.10;;;;;;5036987;28;20486;-75
2022/08/14 01:31:11;;;;;;;11.90;10.97;;;23.40;89.00;;;;;;5037012;28;20469;-75
2022/08/14 01:33:43;;;;;;;10.83;9.93;;;23.40;89.20;;;;;;5036948;28;20420;-75
2022/08/14 01:36:35;;;;;;;11.73;10.70;;;23.40;89.30;;;;;;5036541;28;20463;-75
2022/08/14 01:39:10;;;;;;;12.37;11.23;;;23.40;89.40;;;;;;5036610;28;21022;-75
2022/08/14 01:41:42;;;;;;;11.13;10.23;;;23.40;89.60;;;;;;5035308;28;20458;-75
2022/08/14 01:44:14;;;;;;;11.03;10.13;;;23.40;89.80;;;;;;5035238;28;20443;-75
2022/08/14 01:47:11;;;;;;;11.10;10.13;;;23.40;89.90;;;;;;5036351;28;20455;-76
2022/08/14 01:49:48;;;;;;;10.30;9.50;;;23.30;89.90;;;;;;5035239;28;20485;-76
2022/08/14 01:52:33;;;;;;;11.47;10.27;;;23.30;90.00;;;;;;5035041;28;20426;-76
2022/08/14 01:55:29;;;;;;;12.00;11.00;;;23.30;90.10;;;;;;5034986;28;20471;-76
2022/08/14 01:57:58;;;;;;;10.53;9.63;;;23.20;90.10;;;;;;5036862;28;20419;-76
2022/08/14 02:00:52;;;;;;;11.37;10.53;;;23.20;90.20;;;;;;5036514;28;20477;-76
2022/08/14 02:03:29;;;;;;;11.70;10.87;;;23.20;90.20;;;;;;5036428;28;20419;-75
2022/08/14 02:05:58;;;;;;;11.77;10.67;;;23.20;90.30;;;;;;5036302;28;21058;-75
2022/08/14 02:08:48;;;;;;;12.50;11.50;;;23.10;90.30;;;;;;5035983;28;20546;-75
2022/08/14 02:11:25;;;;;;;11.10;10.10;;;23.10;90.30;;;;;;5034827;28;20438;-75
2022/08/14 02:13:58;;;;;;;11.63;10.57;;;23.10;90.30;;;;;;5034717;28;20932;-76
2022/08/14 02:16:37;;;;;;;11.90;10.87;;;23.00;90.40;;;;;;5036369;28;20546;-76
2022/08/14 02:19:10;;;;;;;11.77;10.87;;;23.00;90.50;;;;;;5036256;28;20522;-75
2022/08/14 02:21:40;;;;;;;11.30;10.40;;;23.00;90.60;;;;;;5036290;28;20823;-75
2022/08/14 02:24:19;;;;;;;12.37;11.17;;;22.90;90.60;;;;;;5034597;28;20455;-75
2022/08/14 02:27:09;;;;;;;11.77;10.87;;;22.90;90.70;;;;;;5034325;28;20566;-75
2022/08/14 02:29:58;;;;;;;11.17;10.37;;;22.90;90.80;;;;;;5035579;28;20980;-75
2022/08/14 02:32:32;;;;;;;11.60;10.70;;;22.80;90.70;;;;;;5034190;28;20522;-75
2022/08/14 02:35:15;;;;;;;10.80;9.90;;;22.80;90.70;;;;;;5036019;28;20433;-75
2022/08/14 02:37:45;;;;;;;11.37;10.47;;;22.80;90.80;;;;;;5034241;28;20439;-75
2022/08/14 02:40:17;;;;;;;12.00;11.10;;;22.80;90.90;;;;;;5035779;28;20434;-75
2022/08/14 02:42:47;;;;;;;12.17;10.97;;;22.70;90.90;;;;;;5035473;28;20493;-76
2022/08/14 02:45:31;;;;;;;12.90;11.90;;;22.70;91.10;;;;;;5035345;28;20462;-76
2022/08/14 02:48:12;;;;;;;12.23;11.23;;;22.70;91.20;;;;;;5035576;28;20425;-76
2022/08/14 02:51:04;;;;;;;12.10;11.10;;;22.70;91.30;;;;;;5040359;28;20431;-75
2022/08/14 02:53:33;;;;;;;13.13;11.37;;;22.60;91.30;;;;;;5036037;28;20419;-75
2022/08/14 02:56:04;;;;;;;11.83;10.93;;;22.60;91.30;;;;;;5035296;28;20466;-75
2022/08/14 02:58:56;;;;;;;12.07;10.87;;;22.60;91.40;;;;;;5035811;28;20431;-75
2022/08/14 03:01:28;;;;;;;11.73;10.83;;;22.50;91.50;;;;;;5033763;28;20450;-75
2022/08/14 03:04:11;;;;;;;12.20;11.20;;;22.50;91.50;;;;;;5033835;28;20471;-75
2022/08/14 03:06:42;;;;;;;11.37;10.23;;;22.50;91.60;;;;;;5034857;28;20459;-74
2022/08/14 03:09:26;;;;;;;11.10;10.17;;;22.50;91.70;;;;;;5034817;28;20466;-75
2022/08/14 03:12:14;;;;;;;12.67;11.47;;;22.40;91.70;;;;;;5034844;28;20538;-75
2022/08/14 03:15:09;;;;;;;12.33;11.43;;;22.40;91.70;;;;;;5035261;28;20431;-76
2022/08/14 03:17:42;;;;;;;16.23;14.73;;;22.40;91.90;;;;;;5034714;28;20798;-75
2022/08/14 03:20:27;;;;;;;29.57;26.67;;;22.40;91.90;;;;;;5033483;28;20451;-75
2022/08/14 03:22:58;;;;;;;24.67;22.30;;;22.30;92.00;;;;;;5033467;28;20449;-74
2022/08/14 03:25:32;;;;;;;14.27;13.00;;;22.30;92.10;;;;;;5034486;28;20979;-76
2022/08/14 03:28:03;;;;;;;12.40;11.20;;;22.30;92.20;;;;;;5033303;28;20449;-76
2022/08/14 03:30:33;;;;;;;13.60;12.50;;;22.30;92.30;;;;;;5035652;28;20452;-75
2022/08/14 03:33:09;;;;;;;12.70;11.70;;;22.30;92.40;;;;;;5056081;28;20419;-75
2022/08/14 03:35:40;;;;;;;11.70;10.80;;;22.20;92.40;;;;;;5053295;28;20489;-75
2022/08/14 03:38:29;;;;;;;13.13;11.93;;;22.20;92.50;;;;;;5044127;28;20481;-76
2022/08/14 03:41:20;;;;;;;13.30;12.30;;;22.20;92.50;;;;;;5048243;28;20454;-75
2022/08/14 03:43:53;;;;;;;14.97;13.77;;;22.20;92.60;;;;;;5049128;28;20427;-75
2022/08/14 03:46:32;;;;;;;13.80;12.80;;;22.20;92.70;;;;;;5048619;28;20975;-76
2022/08/14 03:49:23;;;;;;;12.67;11.57;;;22.20;92.80;;;;;;5054920;28;20466;-75
2022/08/14 03:51:57;;;;;;;12.53;11.27;;;22.10;92.80;;;;;;5041390;28;20486;-75
2022/08/14 03:54:28;;;;;;;11.60;10.60;;;22.10;92.90;;;;;;5042055;28;20419;-75
2022/08/14 03:56:59;;;;;;;12.37;11.27;;;22.10;93.00;;;;;;5038702;28;20553;-75
2022/08/14 03:59:30;;;;;;;12.30;11.27;;;22.00;93.00;;;;;;5035751;28;20424;-75
2022/08/14 04:02:02;;;;;;;11.60;10.70;;;22.00;93.10;;;;;;5033954;28;20529;-76
2022/08/14 04:04:36;;;;;;;11.00;10.10;;;22.00;93.20;;;;;;5034010;28;20472;-76
2022/08/14 04:07:09;;;;;;;11.53;10.63;;;21.90;93.20;;;;;;5034770;28;20458;-74
2022/08/14 04:09:38;;;;;;;12.60;11.50;;;21.90;93.30;;;;;;5033864;28;20466;-75
2022/08/14 04:12:07;;;;;;;11.67;10.63;;;21.90;93.40;;;;;;5033876;28;20431;-75
2022/08/14 04:14:42;;;;;;;10.80;9.87;;;21.90;93.40;;;;;;5034190;28;20454;-75
2022/08/14 04:17:14;;;;;;;12.87;11.57;;;21.80;93.40;;;;;;5034158;28;20507;-75
2022/08/14 04:19:43;;;;;;;12.47;11.43;;;21.80;93.50;;;;;;5034102;28;20439;-76
2022/08/14 04:22:12;;;;;;;11.43;10.43;;;21.80;93.50;;;;;;5033983;28;20434;-75
2022/08/14 04:24:44;;;;;;;11.47;10.47;;;21.80;93.60;;;;;;5033680;28;20483;-74
2022/08/14 04:27:16;;;;;;;11.33;10.43;;;21.80;93.70;;;;;;5033626;28;20437;-75
2022/08/14 04:29:44;;;;;;;12.37;11.30;;;21.70;94.00;;;;;;5033877;28;20880;-75
2022/08/14 04:32:14;;;;;;;12.27;11.17;;;21.70;93.80;;;;;;5033637;28;20944;-75
2022/08/14 04:35:03;;;;;;;11.27;10.30;;;21.70;93.90;;;;;;5033543;28;20443;-75
2022/08/14 04:46:08;;;;;;;12.00;10.90;;;21.70;94.10;;;;;;5033976;28;20474;-75
2022/08/14 04:48:39;;;;;;;12.23;11.33;;;21.60;94.20;;;;;;5033964;28;20421;-75
2022/08/14 04:51:19;;;;;;;11.63;10.73;;;21.60;94.30;;;;;;5033748;28;20459;-75
2022/08/14 04:53:50;;;;;;;11.10;10.17;;;21.70;94.40;;;;;;5033924;28;20442;-75
2022/08/14 04:56:22;;;;;;;11.97;11.07;;;21.70;94.50;;;;;;5033516;28;20469;-75
2022/08/14 04:59:06;;;;;;;13.30;12.10;;;21.70;94.60;;;;;;5037627;28;20426;-74
2022/08/14 05:01:40;;;;;;;13.33;12.33;;;21.70;94.70;;;;;;5037868;28;20423;-75
2022/08/14 05:04:14;;;;;;;13.20;11.90;;;21.70;95.10;;;;;;5037256;28;20900;-75
2022/08/14 05:06:48;;;;;;;13.27;12.27;;;21.70;95.00;;;;;;5037185;28;20461;-75
2022/08/14 05:09:20;;;;;;;13.03;11.90;;;21.80;95.10;;;;;;5037589;28;20423;-75
2022/08/14 05:11:48;;;;;;;12.80;11.80;;;21.80;95.20;;;;;;5037929;28;20466;-76
2022/08/14 05:14:21;;;;;;;12.17;11.20;;;21.80;95.30;;;;;;5037670;28;20488;-76
2022/08/14 05:17:09;;;;;;;13.97;12.83;;;21.80;95.40;;;;;;5037005;28;20486;-76
2022/08/14 05:19:39;;;;;;;12.33;10.93;;;21.90;95.50;;;;;;5037381;28;20442;-76
2022/08/14 05:22:28;;;;;;;13.30;12.30;;;21.90;95.50;;;;;;5037101;28;20541;-76
2022/08/14 05:24:56;;;;;;;13.67;12.57;;;21.90;95.60;;;;;;5037353;28;20546;-75
2022/08/14 05:27:25;;;;;;;13.17;12.07;;;22.00;95.70;;;;;;5037298;28;20807;-75
2022/08/14 05:29:58;;;;;;;13.37;12.10;;;22.00;95.80;;;;;;5037177;28;20545;-76
2022/08/14 05:32:27;;;;;;;12.30;11.20;;;22.00;95.90;;;;;;5035635;28;20487;-75
2022/08/14 05:34:59;;;;;;;12.43;11.33;;;22.10;96.00;;;;;;5035674;28;20542;-76
2022/08/14 05:37:29;;;;;;;13.03;12.00;;;22.10;96.00;;;;;;5037585;28;20816;-75
2022/08/14 05:39:59;;;;;;;12.53;11.53;;;22.10;96.00;;;;;;5037155;28;20423;-75
2022/08/14 05:42:29;;;;;;;13.27;12.20;;;22.20;96.10;;;;;;5037261;28;20876;-76
2022/08/14 05:45:02;;;;;;;13.40;12.30;;;22.20;96.10;;;;;;5036874;28;20439;-75
2022/08/14 05:47:32;;;;;;;13.73;12.63;;;22.30;96.20;;;;;;5037263;28;20434;-75
2022/08/14 05:50:09;;;;;;;12.77;11.73;;;22.30;96.20;;;;;;5037155;28;20466;-75
2022/08/14 05:52:48;;;;;;;13.40;12.40;;;22.30;96.20;;;;;;5035248;28;20427;-76
2022/08/14 05:55:18;;;;;;;12.97;12.07;;;22.40;96.30;;;;;;5036953;28;20458;-75
2022/08/14 05:57:55;;;;;;;13.33;11.93;;;22.40;96.40;;;;;;5036855;28;20512;-75
2022/08/14 06:00:31;;;;;;;13.67;12.47;;;22.50;96.40;;;;;;5035032;28;20435;-75
2022/08/14 06:03:08;;;;;;;12.30;11.30;;;22.60;96.40;;;;;;5034958;28;20533;-75
2022/08/14 06:05:38;;;;;;;12.87;11.83;;;22.70;96.40;;;;;;5036768;28;20489;-76
2022/08/14 06:08:15;;;;;;;12.30;11.30;;;22.90;96.50;;;;;;5036293;28;20458;-75
2022/08/14 06:11:05;;;;;;;12.37;11.47;;;23.10;96.50;;;;;;5035013;28;20482;-75
2022/08/14 06:13:34;;;;;;;12.50;11.50;;;23.30;96.50;;;;;;5035165;28;20952;-77
2022/08/14 06:16:14;;;;;;;13.27;12.37;;;23.60;96.50;;;;;;5036435;28;20466;-76
2022/08/14 06:18:47;;;;;;;11.70;10.60;;;23.80;96.50;;;;;;5034879;28;20939;-76
2022/08/14 06:21:21;;;;;;;11.13;10.23;;;24.00;96.40;;;;;;5036052;28;20427;-76
2022/08/14 06:23:49;;;;;;;10.57;9.77;;;24.30;96.40;;;;;;5035912;28;20986;-76
2022/08/14 06:26:18;;;;;;;12.07;11.17;;;24.60;96.30;;;;;;5036059;28;20513;-76
2022/08/14 06:28:48;;;;;;;11.33;10.37;;;24.80;96.10;;;;;;5035814;28;20967;-77
2022/08/14 06:31:21;;;;;;;10.30;9.40;;;25.10;96.30;;;;;;5036079;28;20500;-76
2022/08/14 06:33:50;;;;;;;10.77;9.70;;;25.30;95.90;;;;;;5035760;28;20427;-76
2022/08/14 06:36:39;;;;;;;10.93;10.07;;;25.50;95.70;;;;;;5035829;28;20566;-76
2022/08/14 06:39:08;;;;;;;10.40;9.60;;;25.70;95.50;;;;;;5036157;28;20419;-76
2022/08/14 06:41:38;;;;;;;10.70;9.90;;;26.00;95.30;;;;;;5035829;28;20557;-76
2022/08/14 06:44:26;;;;;;;10.80;9.33;;;26.20;95.10;;;;;;5036216;28;20772;-76
2022/08/14 06:47:00;;;;;;;10.07;9.30;;;26.40;94.90;;;;;;5036099;28;20497;-76
2022/08/14 06:49:28;;;;;;;11.27;10.30;;;26.60;94.70;;;;;;5036588;28;20431;-76
2022/08/14 06:51:59;;;;;;;9.43;8.73;;;26.80;94.50;;;;;;5034492;28;20514;-76
2022/08/14 06:54:30;;;;;;;9.43;8.73;;;27.00;94.30;;;;;;5035949;28;20426;-76
2022/08/14 06:56:59;;;;;;;9.47;8.67;;;27.20;94.10;;;;;;5035190;28;20554;-77
2022/08/14 06:59:27;;;;;;;16.57;14.87;;;27.30;93.90;;;;;;5035527;28;20478;-75
2022/08/14 07:07:37;;;;;;;13.70;12.50;;;27.70;93.40;;;;;;5035104;28;20439;-75
2022/08/14 07:10:07;;;;;;;10.90;10.10;;;27.90;93.20;;;;;;5035451;28;20434;-76
2022/08/14 07:12:44;;;;;;;10.50;9.80;;;28.00;93.00;;;;;;5036396;28;20455;-77
2022/08/14 07:15:31;;;;;;;10.63;9.83;;;28.10;92.70;;;;;;5036308;28;20491;-77
2022/08/14 07:18:07;;;;;;;9.60;8.80;;;28.20;92.80;;;;;;5036116;28;20427;-76
2022/08/14 07:20:37;;;;;;;9.87;9.10;;;28.30;92.50;;;;;;5034012;28;20447;-76
2022/08/14 07:23:08;;;;;;;10.20;9.40;;;28.40;92.20;;;;;;5035102;28;20443;-75
2022/08/14 07:25:49;;;;;;;9.83;9.03;;;28.50;92.30;;;;;;5035494;28;20549;-77
2022/08/14 07:28:22;;;;;;;10.63;9.83;;;28.50;92.10;;;;;;5036013;28;20425;-77
2022/08/14 07:30:51;;;;;;;10.03;9.33;;;28.70;91.90;;;;;;5034732;28;20450;-76
2022/08/14 07:33:20;;;;;;;9.63;8.93;;;28.70;91.70;;;;;;5035057;28;20462;-76
2022/08/14 07:35:58;;;;;;;10.00;9.30;;;28.80;91.40;;;;;;5033478;28;20475;-76
2022/08/14 07:38:29;;;;;;;10.03;9.33;;;28.80;91.20;;;;;;5033434;28;20435;-76
2022/08/14 07:41:06;;;;;;;12.70;11.70;;;28.90;91.30;;;;;;5033494;28;20445;-77
2022/08/14 07:43:42;;;;;;;11.60;10.40;;;29.00;91.20;;;;;;5035138;28;20786;-76
2022/08/14 07:46:16;;;;;;;11.07;10.07;;;29.10;91.40;;;;;;5034827;28;20469;-77
2022/08/14 07:48:56;;;;;;;9.73;9.03;;;29.20;91.00;;;;;;5033489;28;20443;-78
2022/08/14 07:51:25;;;;;;;10.43;9.50;;;29.20;90.90;;;;;;5034846;28;20467;-76
2022/08/14 07:54:03;;;;;;;10.67;9.83;;;29.30;90.70;;;;;;5035162;28;20457;-77
2022/08/14 07:56:38;;;;;;;10.10;9.30;;;29.40;90.70;;;;;;5033392;28;20467;-76
2022/08/14 07:59:16;;;;;;;10.10;9.10;;;29.40;90.50;;;;;;5034253;28;20422;-77
2022/08/14 08:01:46;;;;;;;10.57;9.60;;;29.50;90.50;;;;;;5034850;28;20806;-76
2022/08/14 08:04:24;;;;;;;10.20;9.40;;;29.60;90.50;;;;;;5035184;28;20430;-77
2022/08/14 08:06:54;;;;;;;11.73;10.93;;;29.70;90.50;;;;;;5035367;28;20462;-77
2022/08/14 08:09:26;;;;;;;10.67;9.80;;;29.80;90.40;;;;;;5035038;28;20561;-77
2022/08/14 08:12:01;;;;;;;10.30;9.50;;;29.80;90.20;;;;;;5035104;28;20495;-77
2022/08/14 08:14:33;;;;;;;11.20;10.30;;;29.90;90.20;;;;;;5034479;28;20437;-77
2022/08/14 08:17:23;;;;;;;10.70;9.90;;;30.00;90.30;;;;;;5034813;28;20440;-77
2022/08/14 08:19:51;;;;;;;11.07;10.27;;;30.10;90.10;;;;;;5034965;28;20438;-80
2022/08/14 08:22:20;;;;;;;11.73;10.90;;;30.10;89.70;;;;;;5035598;28;20530;-77
2022/08/14 08:24:50;;;;;;;10.80;9.70;;;30.10;89.40;;;;;;5034047;28;20446;-76
2022/08/14 08:27:19;;;;;;;13.37;12.40;;;30.10;89.40;;;;;;5034092;28;20438;-76
2022/08/14 08:29:48;;;;;;;11.23;10.33;;;30.10;89.50;;;;;;5034543;28;20419;-78
2022/08/14 08:32:18;;;;;;;10.20;9.50;;;30.20;89.30;;;;;;5032637;28;20557;-77
2022/08/14 08:34:48;;;;;;;10.20;9.50;;;30.20;88.90;;;;;;5034198;28;20453;-75
2022/08/14 08:37:16;;;;;;;10.63;9.73;;;30.30;88.60;;;;;;5034008;28;20533;-77
2022/08/14 08:39:46;;;;;;;10.83;10.03;;;30.30;88.50;;;;;;5033798;28;20526;-76
2022/08/14 08:42:32;;;;;;;10.17;9.27;;;30.30;88.50;;;;;;5034618;28;20415;-77
2022/08/14 08:45:15;;;;;;;11.57;10.70;;;30.40;88.20;;;;;;5035230;28;20454;-76
2022/08/14 08:47:45;;;;;;;11.47;10.40;;;30.40;87.90;;;;;;5043402;28;20439;-77
2022/08/14 08:50:23;;;;;;;11.03;10.27;;;30.40;87.80;;;;;;5047330;28;20442;-77
2022/08/14 08:53:00;;;;;;;10.40;9.60;;;30.40;87.60;;;;;;5044847;28;20455;-76
2022/08/14 08:55:31;;;;;;;10.97;10.17;;;30.40;87.50;;;;;;5044334;28;20454;-75
2022/08/14 08:58:04;;;;;;;11.70;10.90;;;30.50;87.30;;;;;;5045968;28;20426;-77
2022/08/14 09:00:53;;;;;;;10.50;9.80;;;30.60;87.40;;;;;;5043768;28;20941;-77
2022/08/14 09:03:24;;;;;;;11.00;10.10;;;30.60;87.40;;;;;;5043602;28;20435;-77
2022/08/14 09:05:57;;;;;;;11.07;10.20;;;30.70;87.40;;;;;;5042901;28;20894;-77
2022/08/14 09:08:27;;;;;;;10.70;9.70;;;30.80;87.20;;;;;;5042493;28;20446;-77
2022/08/14 09:11:01;;;;;;;11.10;10.10;;;30.90;86.50;;;;;;5035843;28;20469;-76
2022/08/14 09:13:50;;;;;;;9.90;9.20;;;30.90;85.90;;;;;;5033182;28;20840;-76
2022/08/14 09:16:22;;;;;;;11.60;10.50;;;30.90;85.80;;;;;;5034635;28;20482;-75
2022/08/14 09:18:51;;;;;;;11.00;10.20;;;30.90;85.70;;;;;;5034418;28;20431;-76
2022/08/14 09:21:22;;;;;;;11.50;10.60;;;30.90;85.70;;;;;;5034208;28;20431;-77
2022/08/14 09:23:53;;;;;;;12.30;11.40;;;30.90;85.20;;;;;;5032683;28;20464;-77
2022/08/14 09:26:44;;;;;;;10.73;9.93;;;30.80;85.10;;;;;;5032284;28;20494;-76
2022/08/14 09:29:19;;;;;;;11.40;10.50;;;30.80;85.00;;;;;;5033904;28;20418;-77
2022/08/14 09:31:54;;;;;;;10.63;9.67;;;30.90;85.00;;;;;;5034469;28;20741;-77
2022/08/14 09:34:42;;;;;;;10.83;9.93;;;31.00;85.00;;;;;;5034083;28;20418;-77
2022/08/14 09:37:40;;;;;;;10.50;9.80;;;31.00;85.60;;;;;;5032543;28;20453;-77
2022/08/14 09:40:20;;;;;;;11.27;10.47;;;31.00;84.50;;;;;;5032495;28;20439;-76
2022/08/14 09:42:57;;;;;;;10.20;9.50;;;31.00;84.30;;;;;;5033900;28;20754;-75
2022/08/14 09:45:33;;;;;;;11.60;10.80;;;31.00;84.30;;;;;;5036005;28;20565;-76
2022/08/14 09:48:22;;;;;;;11.30;10.50;;;31.00;84.40;;;;;;5037603;28;20423;-76
2022/08/14 09:51:00;;;;;;;11.07;10.30;;;31.10;84.20;;;;;;5037836;28;20484;-76
2022/08/14 09:53:42;;;;;;;11.80;10.80;;;31.10;84.10;;;;;;5037540;28;20478;-76
2022/08/14 09:56:31;;;;;;;11.73;10.80;;;31.20;84.00;;;;;;5035796;28;20462;-76
2022/08/14 09:59:15;;;;;;;11.63;10.73;;;31.30;84.00;;;;;;5035557;28;20455;-75
2022/08/14 10:01:45;;;;;;;11.07;10.27;;;31.30;83.70;;;;;;5036961;28;20534;-76
2022/08/14 10:04:23;;;;;;;10.93;9.93;;;31.30;83.40;;;;;;5037020;28;20473;-76
2022/08/14 10:07:04;;;;;;;11.53;10.53;;;31.40;83.40;;;;;;5036575;28;20510;-76
2022/08/14 10:09:33;;;;;;;11.33;10.40;;;31.40;83.10;;;;;;5035943;28;20430;-76
2022/08/14 10:12:05;;;;;;;10.73;9.93;;;31.50;83.00;;;;;;5036833;28;20446;-76
2022/08/14 10:14:40;;;;;;;11.20;10.40;;;31.50;82.80;;;;;;5035705;28;20431;-76
2022/08/14 10:17:10;;;;;;;11.23;10.20;;;31.50;82.20;;;;;;5035292;28;20573;-76
2022/08/14 10:19:48;;;;;;;10.93;10.17;;;31.50;81.60;;;;;;5036928;28;20960;-77
2022/08/14 10:22:27;;;;;;;11.27;10.20;;;31.50;81.20;;;;;;5036596;28;20438;-76
2022/08/14 10:25:18;;;;;;;11.40;10.53;;;31.50;81.40;;;;;;5036251;28;20509;-76
2022/08/14 10:27:57;;;;;;;11.67;10.77;;;31.60;81.70;;;;;;5036816;28;20430;-76
2022/08/14 10:30:33;;;;;;;11.00;10.30;;;31.60;81.60;;;;;;5036557;28;20893;-76
2022/08/14 10:33:04;;;;;;;11.13;10.33;;;31.70;81.00;;;;;;5036706;28;20983;-77
2022/08/14 10:35:41;;;;;;;11.27;9.80;;;31.60;80.50;;;;;;5036614;28;20459;-77
2022/08/14 10:38:25;;;;;;;10.13;9.33;;;31.60;79.80;;;;;;5035854;28;20431;-75
2022/08/14 10:40:54;;;;;;;11.53;10.27;;;31.50;79.50;;;;;;5036287;28;20431;-76
2022/08/14 10:43:29;;;;;;;11.67;10.67;;;31.50;79.80;;;;;;5034789;28;20442;-75
2022/08/14 10:46:01;;;;;;;10.70;9.97;;;31.50;80.00;;;;;;5036582;28;20949;-75
2022/08/14 10:49:01;;;;;;;11.37;10.50;;;31.50;79.90;;;;;;5036179;28;20906;-76
2022/08/14 10:51:34;;;;;;;10.90;10.10;;;31.60;79.90;;;;;;5034820;28;20482;-75
2022/08/14 10:54:10;;;;;;;10.17;9.43;;;31.60;79.80;;;;;;5035891;28;20454;-76
2022/08/14 10:56:58;;;;;;;10.33;9.63;;;31.60;79.70;;;;;;5034399;28;20481;-76
2022/08/14 10:59:41;;;;;;;10.63;9.83;;;31.50;80.40;;;;;;5035840;28;20454;-74
2022/08/14 11:02:21;;;;;;;9.80;9.00;;;31.50;79.60;;;;;;5035771;28;20430;-76
2022/08/14 11:05:13;;;;;;;10.33;9.53;;;31.60;79.20;;;;;;5035804;28;20566;-75
2022/08/14 11:07:54;;;;;;;9.63;8.83;;;31.60;79.10;;;;;;5035612;28;20905;-75
2022/08/14 11:10:26;;;;;;;10.93;10.10;;;31.60;78.60;;;;;;5035641;28;20434;-75
2022/08/14 11:12:57;;;;;;;9.80;8.90;;;31.70;78.60;;;;;;5035672;28;20459;-76
2022/08/14 11:15:27;;;;;;;11.50;10.40;;;31.70;78.40;;;;;;5033958;28;20471;-76
2022/08/14 11:18:00;;;;;;;10.80;10.00;;;31.70;78.30;;;;;;5035688;28;20435;-75
2022/08/14 11:20:31;;;;;;;10.00;9.20;;;31.70;78.20;;;;;;5035476;28;20435;-76
2022/08/14 11:23:03;;;;;;;10.70;9.70;;;31.70;77.70;;;;;;5034057;28;20439;-75
2022/08/14 11:25:37;;;;;;;10.00;9.20;;;31.70;77.50;;;;;;5035374;28;20881;-75
2022/08/14 11:28:12;;;;;;;10.53;9.77;;;31.70;77.40;;;;;;5040479;28;20469;-76
2022/08/14 11:30:49;;;;;;;10.13;9.30;;;31.70;77.30;;;;;;5034406;28;20857;-76
2022/08/14 11:33:23;;;;;;;10.90;9.90;;;31.60;77.20;;;;;;5036206;28;20454;-76
2022/08/14 11:35:53;;;;;;;9.47;8.77;;;31.60;77.00;;;;;;5035373;28;20462;-75
2022/08/14 11:38:27;;;;;;;10.10;9.40;;;31.60;76.90;;;;;;5035421;28;20422;-76
2022/08/14 11:40:57;;;;;;;11.17;10.20;;;31.50;76.90;;;;;;5035026;28;20431;-75
2022/08/14 11:43:28;;;;;;;10.53;9.63;;;31.40;76.60;;;;;;5033351;28;20519;-76
2022/08/14 11:46:01;;;;;;;11.93;10.93;;;31.40;76.70;;;;;;5036168;28;20454;-76
2022/08/14 11:48:44;;;;;;;10.43;9.67;;;31.40;76.50;;;;;;5033371;28;20471;-76
2022/08/14 11:51:33;;;;;;;9.27;8.47;;;31.50;76.40;;;;;;5035207;28;20419;-75
2022/08/14 11:54:18;;;;;;;9.33;8.53;;;31.50;76.20;;;;;;5034900;28;20466;-75
2022/08/14 11:56:50;;;;;;;10.10;9.30;;;31.60;76.30;;;;;;5033779;28;20467;-77
2022/08/14 11:59:21;;;;;;;9.50;8.70;;;31.60;76.30;;;;;;5034875;28;20824;-75
2022/08/14 12:02:12;;;;;;;9.70;8.60;;;31.70;76.40;;;;;;5034622;28;20427;-77
2022/08/14 12:05:03;;;;;;;10.03;9.13;;;31.80;76.20;;;;;;5033169;28;20537;-76
2022/08/14 12:07:48;;;;;;;9.33;8.63;;;31.90;76.10;;;;;;5032963;28;20455;-76
2022/08/14 12:10:19;;;;;;;10.93;9.97;;;31.90;76.00;;;;;;5034855;28;20834;-75
2022/08/14 12:12:57;;;;;;;9.87;9.07;;;31.90;75.90;;;;;;5034508;28;20420;-75
2022/08/14 12:15:34;;;;;;;9.70;8.80;;;31.90;75.60;;;;;;5032776;28;20470;-76
2022/08/14 12:18:03;;;;;;;9.30;8.50;;;31.90;75.20;;;;;;5032717;28;20480;-75
2022/08/14 12:20:35;;;;;;;9.90;9.20;;;31.90;75.10;;;;;;5032832;28;20453;-75
2022/08/14 12:23:20;;;;;;;10.33;9.13;;;31.80;74.90;;;;;;5034211;28;20423;-76
2022/08/14 12:25:50;;;;;;;10.07;9.27;;;31.80;74.80;;;;;;5034109;28;20817;-76
2022/08/14 12:28:39;;;;;;;10.90;9.87;;;31.80;74.70;;;;;;5033666;28;20435;-76
2022/08/14 12:31:27;;;;;;;8.70;8.00;;;31.80;74.40;;;;;;5034585;28;20446;-76
2022/08/14 12:34:05;;;;;;;11.83;10.60;;;31.80;74.20;;;;;;5034540;28;20469;-74
2022/08/14 12:36:38;;;;;;;8.80;7.90;;;31.80;75.00;;;;;;5034050;28;20477;-76
2022/08/14 12:39:19;;;;;;;9.67;8.93;;;31.90;74.20;;;;;;5034097;28;20473;-76
2022/08/14 12:41:51;;;;;;;9.20;8.30;;;31.90;73.90;;;;;;5032640;28;20439;-76
2022/08/14 12:44:37;;;;;;;10.77;9.53;;;32.00;73.70;;;;;;5034118;28;20415;-76
2022/08/14 12:47:08;;;;;;;9.43;8.60;;;31.90;73.40;;;;;;5034645;28;20902;-77
2022/08/14 12:49:53;;;;;;;10.93;9.87;;;31.90;73.70;;;;;;5036916;28;20473;-76
2022/08/14 12:52:30;;;;;;;10.40;9.60;;;31.80;73.60;;;;;;5035567;28;20426;-76
2022/08/14 12:55:20;;;;;;;10.40;9.70;;;31.80;73.70;;;;;;5035225;28;20489;-76
2022/08/14 12:57:54;;;;;;;9.97;9.07;;;31.80;73.70;;;;;;5034556;28;20435;-76
2022/08/14 13:00:24;;;;;;;11.10;10.17;;;31.80;74.20;;;;;;5034882;28;20435;-75
2022/08/14 13:02:54;;;;;;;9.50;8.80;;;31.90;74.00;;;;;;5034149;28;20430;-76
2022/08/14 13:05:25;;;;;;;10.20;9.30;;;31.80;73.80;;;;;;5034233;28;20450;-75
2022/08/14 13:07:56;;;;;;;10.30;9.40;;;31.80;73.50;;;;;;5033909;28;20473;-76
2022/08/14 13:10:31;;;;;;;9.27;8.57;;;31.80;73.20;;;;;;5032663;28;20454;-77
2022/08/14 13:13:19;;;;;;;10.10;9.00;;;31.90;73.30;;;;;;5034052;28;20431;-75
2022/08/14 13:15:51;;;;;;;10.30;9.23;;;31.90;73.40;;;;;;5033418;28;20474;-75
2022/08/14 13:18:26;;;;;;;9.70;8.80;;;31.90;73.00;;;;;;5034691;28;20427;-75
2022/08/14 13:20:57;;;;;;;11.23;10.10;;;31.90;72.90;;;;;;5036221;28;20493;-75
2022/08/14 13:23:37;;;;;;;11.40;10.40;;;31.80;72.80;;;;;;5039733;28;20445;-76
2022/08/14 13:26:09;;;;;;;9.50;8.73;;;31.70;72.80;;;;;;5043464;28;20451;-76
2022/08/14 13:28:41;;;;;;;10.80;9.90;;;31.70;72.90;;;;;;5042501;28;20411;-75
2022/08/14 13:31:39;;;;;;;9.67;8.87;;;31.80;72.90;;;;;;5039876;28;20764;-76
2022/08/14 13:34:12;;;;;;;9.97;9.20;;;31.80;72.80;;;;;;5039868;28;20454;-75
2022/08/14 13:36:41;;;;;;;10.27;9.23;;;31.80;72.70;;;;;;5037117;28;20549;-75